Time;durP1;ratioP1;P1;durP2;ratioP2;P2;SDS_P1;SDS_P2;PMS_P1;PMS_P2;Temp;Humidity;BMP_temperature;BMP_pressure;BME280_temperature;BME280_humidity;BME280_pressure;Samples;Min_cycle;Max_cycle;Signal;HPM_P1;HPM_P2
2022/05/04 00:01:58;;;;;;;;;;;8.20;99.90;;;;;;5058610;28;20008;-82
2022/05/04 00:04:25;;;;;;;;;;;8.20;99.90;;;;;;5054019;28;19968;-86
2022/05/04 00:06:53;;;;;;;;;;;8.20;99.90;;;;;;5049604;28;20023;-84
2022/05/04 00:09:20;;;;;;;;;;;8.20;99.90;;;;;;5052427;28;19993;-85
2022/05/04 00:11:46;;;;;;;;;;;8.20;99.90;;;;;;5049599;28;20028;-84
2022/05/04 00:14:13;;;;;;;;;;;8.30;99.90;;;;;;5049804;28;19968;-84
2022/05/04 00:16:40;;;;;;;;;;;8.40;99.90;;;;;;5045961;28;19925;-84
2022/05/04 00:19:07;;;;;;;;;;;8.50;99.90;;;;;;5051584;28;19928;-84
2022/05/04 00:21:36;;;;;;;;;;;8.60;99.90;;;;;;5046989;28;19924;-82
2022/05/04 00:24:05;;;;;;;;;;;8.60;99.90;;;;;;5045622;28;20465;-82
2022/05/04 00:26:31;;;;;;;;;;;8.70;99.90;;;;;;5062673;28;20350;-80
2022/05/04 00:28:58;;;;;;;;;;;8.70;99.90;;;;;;5055052;28;19928;-85
2022/05/04 00:31:25;;;;;;;;;;;8.70;99.90;;;;;;5051306;28;19964;-86
2022/05/04 00:33:51;;;;;;;;;;;8.70;99.90;;;;;;5051480;28;20035;-86
2022/05/04 00:36:18;;;;;;;;;;;8.70;99.90;;;;;;5049387;28;20008;-83
2022/05/04 00:38:45;;;;;;;;;;;8.80;99.90;;;;;;5052086;28;19924;-87
2022/05/04 00:41:13;;;;;;;;;;;8.80;99.90;;;;;;5052042;28;19924;-87
2022/05/04 00:43:39;;;;;;;;;;;8.70;99.90;;;;;;5061682;28;19924;-80
2022/05/04 00:46:06;;;;;;;;;;;8.70;99.90;;;;;;5055847;28;20062;-81
2022/05/04 00:48:34;;;;;;;;;;;8.70;99.90;;;;;;5051334;28;20024;-87
2022/05/04 00:51:01;;;;;;;;;;;8.70;99.90;;;;;;5047541;28;20020;-87
2022/05/04 00:53:28;;;;;;;;;;;8.70;99.90;;;;;;5054815;28;20085;-86
2022/05/04 00:55:54;;;;;;;;;;;8.80;99.90;;;;;;5056790;28;20032;-85
2022/05/04 01:01:07;;;;;;;;;;;8.80;99.90;;;;;;5055577;28;20409;-86
2022/05/04 01:03:33;;;;;;;;;;;8.90;99.90;;;;;;5072030;28;19924;-87
2022/05/04 01:06:00;;;;;;;;;;;8.80;99.90;;;;;;5056236;28;19972;-84
2022/05/04 01:08:27;;;;;;;;;;;8.70;99.90;;;;;;5059686;28;19939;-86
2022/05/04 01:10:54;;;;;;;;;;;8.70;99.90;;;;;;5054887;28;20017;-81
2022/05/04 01:13:21;;;;;;;;;;;8.80;99.90;;;;;;5060512;28;20007;-81
2022/05/04 01:15:49;;;;;;;;;;;8.70;99.90;;;;;;5051803;28;19931;-84
2022/05/04 01:18:16;;;;;;;;;;;8.70;99.90;;;;;;5057638;28;19939;-83
2022/05/04 01:20:43;;;;;;;;;;;8.60;99.90;;;;;;5066562;28;19931;-83
2022/05/04 01:23:11;;;;;;;;;;;8.60;99.90;;;;;;5054202;28;19931;-82
2022/05/04 01:25:37;;;;;;;;;;;8.70;99.90;;;;;;5052750;28;20011;-83
2022/05/04 01:28:05;;;;;;;;;;;8.80;99.90;;;;;;5055156;28;20314;-83
2022/05/04 01:30:32;;;;;;;;;;;8.80;99.90;;;;;;5054569;28;19925;-84
2022/05/04 01:32:59;;;;;;;;;;;8.90;99.90;;;;;;5061077;28;19924;-83
2022/05/04 01:35:25;;;;;;;;;;;8.90;99.90;;;;;;5055264;28;19931;-84
2022/05/04 01:37:52;;;;;;;;;;;9.00;99.90;;;;;;5056499;28;20004;-86
2022/05/04 01:40:20;;;;;;;;;;;9.00;99.90;;;;;;5041046;28;20284;-85
2022/05/04 01:42:47;;;;;;;;;;;9.00;99.90;;;;;;5056353;28;19925;-84
2022/05/04 01:45:14;;;;;;;;;;;8.90;99.90;;;;;;5052626;28;20343;-81
2022/05/04 01:47:40;;;;;;;;;;;8.80;99.90;;;;;;5046499;28;20009;-83
2022/05/04 01:50:07;;;;;;;;;;;8.80;99.90;;;;;;5045261;28;19975;-82
2022/05/04 01:52:34;;;;;;;;;;;8.70;99.90;;;;;;5053983;28;19939;-79
2022/05/04 01:55:01;;;;;;;;;;;8.70;99.90;;;;;;5052983;28;19925;-84
2022/05/04 01:57:29;;;;;;;;;;;8.60;99.90;;;;;;5061842;28;20441;-87
2022/05/04 01:59:55;;;;;;;;;;;8.50;99.90;;;;;;5049515;28;21166;-83
2022/05/04 02:02:22;;;;;;;;;;;8.50;99.90;;;;;;5060453;28;20055;-86
2022/05/04 02:04:50;;;;;;;;;;;8.40;99.90;;;;;;5058329;28;20046;-85
2022/05/04 02:07:17;;;;;;;;;;;8.30;99.90;;;;;;5067928;28;20007;-87
2022/05/04 02:09:44;;;;;;;;;;;8.10;99.90;;;;;;5058083;28;20280;-84
2022/05/04 02:12:11;;;;;;;;;;;8.10;99.90;;;;;;5056559;28;20012;-84
2022/05/04 02:14:38;;;;;;;;;;;8.00;99.90;;;;;;5051478;28;19932;-84
2022/05/04 02:17:05;;;;;;;;;;;8.00;99.90;;;;;;5062149;28;19924;-80
2022/05/04 02:19:32;;;;;;;;;;;7.90;99.90;;;;;;5067456;28;19925;-83
2022/05/04 02:21:59;;;;;;;;;;;7.90;99.90;;;;;;5059786;28;20358;-80
2022/05/04 02:24:25;;;;;;;;;;;7.90;99.90;;;;;;5054529;28;19931;-79
2022/05/04 02:26:52;;;;;;;;;;;7.80;99.90;;;;;;5055043;28;20376;-82
2022/05/04 02:29:19;;;;;;;;;;;7.70;99.90;;;;;;5052525;28;19925;-85
2022/05/04 02:31:47;;;;;;;;;;;7.70;99.90;;;;;;5055590;28;19980;-84
2022/05/04 02:34:13;;;;;;;;;;;7.70;99.90;;;;;;5057094;28;20012;-81
2022/05/04 02:39:24;;;;;;;;;;;7.50;99.90;;;;;;5054660;28;19939;-82
2022/05/04 02:41:52;;;;;;;;;;;7.60;99.90;;;;;;5058156;28;19924;-84
2022/05/04 02:44:18;;;;;;;;;;;7.60;99.90;;;;;;5051554;28;19982;-87
2022/05/04 02:46:48;;;;;;;;;;;7.60;99.90;;;;;;5055848;28;20007;-85
2022/05/04 02:49:14;;;;;;;;;;;7.60;99.90;;;;;;5044466;28;19960;-84
2022/05/04 02:51:41;;;;;;;;;;;7.60;99.90;;;;;;5048406;28;19947;-84
2022/05/04 02:54:08;;;;;;;;;;;7.50;99.90;;;;;;5063652;28;19924;-84
2022/05/04 02:56:35;;;;;;;;;;;7.30;99.90;;;;;;5053087;28;19925;-83
2022/05/04 02:59:01;;;;;;;;;;;7.20;99.90;;;;;;5061204;28;19968;-85
2022/05/04 03:04:13;;;;;;;;;;;7.20;99.90;;;;;;5050805;28;19932;-83
2022/05/04 03:06:41;;;;;;;;;;;7.20;99.90;;;;;;5054901;28;20023;-81
2022/05/04 03:09:08;;;;;;;;;;;7.20;99.90;;;;;;5061775;28;19925;-83
2022/05/04 03:14:28;;;;;;;;;;;7.10;99.90;;;;;;5047517;28;19924;-81
2022/05/04 03:16:55;;;;;;;;;;;7.10;99.90;;;;;;5070420;28;19925;-81
2022/05/04 03:19:24;;;;;;;;;;;7.00;99.90;;;;;;5087476;28;19967;-80
2022/05/04 03:21:51;;;;;;;;;;;7.00;99.90;;;;;;5074410;28;19915;-82
2022/05/04 03:24:17;;;;;;;;;;;6.90;99.90;;;;;;5075070;28;19988;-80
2022/05/04 03:26:44;;;;;;;;;;;6.90;99.90;;;;;;5066993;28;20399;-84
2022/05/04 03:29:11;;;;;;;;;;;6.90;99.90;;;;;;5065826;28;20012;-83
2022/05/04 03:31:39;;;;;;;;;;;6.80;99.90;;;;;;5067781;28;20299;-84
2022/05/04 03:34:06;;;;;;;;;;;6.80;99.90;;;;;;5051637;28;19929;-81
2022/05/04 03:36:35;;;;;;;;;;;6.70;99.90;;;;;;5051922;28;20306;-80
2022/05/04 03:39:02;;;;;;;;;;;6.70;99.90;;;;;;5068871;28;19979;-80
2022/05/04 03:41:28;;;;;;;;;;;6.60;99.90;;;;;;5069398;28;19964;-78
2022/05/04 03:43:55;;;;;;;;;;;6.60;99.90;;;;;;5072592;28;19972;-77
2022/05/04 03:46:23;;;;;;;;;;;6.50;99.90;;;;;;5070212;28;19972;-78
2022/05/04 03:48:52;;;;;;;;;;;6.50;99.90;;;;;;5072655;28;19925;-80
2022/05/04 03:51:19;;;;;;;;;;;6.50;99.90;;;;;;5054063;28;19963;-79
2022/05/04 03:53:47;;;;;;;;;;;6.50;99.90;;;;;;5060745;28;19988;-82
2022/05/04 03:56:14;;;;;;;;;;;6.40;99.90;;;;;;5075592;28;20331;-82
2022/05/04 03:58:41;;;;;;;;;;;6.40;99.90;;;;;;5068415;28;19965;-82
2022/05/04 04:01:08;;;;;;;;;;;6.40;99.90;;;;;;5068404;28;19909;-74
2022/05/04 04:03:35;;;;;;;;;;;6.30;99.90;;;;;;5076754;28;19916;-77
2022/05/04 04:06:02;;;;;;;;;;;6.30;99.90;;;;;;5069829;28;19959;-80
2022/05/04 04:08:28;;;;;;;;;;;6.30;99.90;;;;;;5077783;28;19932;-75
2022/05/04 04:10:57;;;;;;;;;;;6.20;99.90;;;;;;5078412;28;19955;-78
2022/05/04 04:13:24;;;;;;;;;;;6.20;99.90;;;;;;5077120;28;19925;-81
2022/05/04 04:15:51;;;;;;;;;;;6.10;99.90;;;;;;5062439;28;19971;-82
2022/05/04 04:18:18;;;;;;;;;;;6.10;99.90;;;;;;5074017;28;19908;-82
2022/05/04 04:23:29;;;;;;;;;;;6.10;99.90;;;;;;5077695;28;19932;-83
2022/05/04 04:25:58;;;;;;;;;;;6.10;99.90;;;;;;5068282;28;19973;-80
2022/05/04 04:28:26;;;;;;;;;;;6.10;99.90;;;;;;5077279;28;19920;-82
2022/05/04 04:30:53;;;;;;;;;;;6.20;99.90;;;;;;5077040;28;19916;-74
2022/05/04 04:33:26;;;;;;;;;;;6.10;99.90;;;;;;5078367;28;19944;-73
2022/05/04 04:35:55;;;;;;;;;;;6.10;99.90;;;;;;5057990;28;19916;-79
2022/05/04 04:38:22;;;;;;;;;;;6.10;99.90;;;;;;5072546;28;19909;-74
2022/05/04 04:40:50;;;;;;;;;;;6.20;99.90;;;;;;5061917;28;19919;-72
2022/05/04 04:43:18;;;;;;;;;;;6.20;99.90;;;;;;5067284;28;19909;-82
2022/05/04 04:45:48;;;;;;;;;;;6.20;99.90;;;;;;5080548;28;19948;-74
2022/05/04 04:48:16;;;;;;;;;;;6.20;99.90;;;;;;5069433;28;19913;-81
2022/05/04 04:50:42;;;;;;;;;;;6.20;99.90;;;;;;5060840;28;19933;-74
2022/05/04 04:53:09;;;;;;;;;;;6.20;99.90;;;;;;5078456;28;19968;-77
2022/05/04 04:55:36;;;;;;;;;;;6.20;99.90;;;;;;5068965;28;19985;-83
2022/05/04 04:58:02;;;;;;;;;;;6.20;99.90;;;;;;5068418;28;19992;-82
2022/05/04 05:00:30;;;;;;;;;;;6.30;99.90;;;;;;5080074;28;19960;-83
2022/05/04 05:02:57;;;;;;;;;;;6.40;99.90;;;;;;5078752;28;19980;-81
2022/05/04 05:05:24;;;;;;;;;;;6.40;99.90;;;;;;5077850;28;19964;-81
2022/05/04 05:07:52;;;;;;;;;;;6.40;99.90;;;;;;5081366;28;19909;-79
2022/05/04 05:10:18;;;;;;;;;;;6.50;99.90;;;;;;5072611;28;19932;-82
2022/05/04 05:12:45;;;;;;;;;;;6.50;99.90;;;;;;5075724;28;19915;-83
2022/05/04 05:17:57;;;;;;;;;;;6.60;99.90;;;;;;5072573;28;19934;-84
2022/05/04 05:20:24;;;;;;;;;;;6.70;99.90;;;;;;5070861;28;19925;-84
2022/05/04 05:22:50;;;;;;;;;;;6.80;99.90;;;;;;5076228;28;19956;-82
2022/05/04 05:25:17;;;;;;;;;;;6.80;99.90;;;;;;5070906;28;19996;-83
2022/05/04 05:27:44;;;;;;;;;;;6.90;99.90;;;;;;5066993;28;20027;-78
2022/05/04 05:30:12;;;;;;;;;;;7.00;99.90;;;;;;5052129;28;19928;-84
2022/05/04 05:32:39;;;;;;;;;;;7.00;99.90;;;;;;5056474;28;20002;-81
2022/05/04 05:35:08;;;;;;;;;;;7.10;99.90;;;;;;5047682;28;20403;-81
2022/05/04 05:37:34;;;;;;;;;;;7.20;99.90;;;;;;5053048;28;19932;-81
2022/05/04 05:40:01;;;;;;;;;;;7.30;99.90;;;;;;5055021;28;19932;-86
2022/05/04 05:42:28;;;;;;;;;;;7.40;99.90;;;;;;5060343;28;19947;-83
2022/05/04 05:44:55;;;;;;;;;;;7.50;99.90;;;;;;5055505;28;19929;-82
2022/05/04 05:47:22;;;;;;;;;;;7.60;99.90;;;;;;5052396;28;20388;-83
2022/05/04 05:49:49;;;;;;;;;;;7.80;99.90;;;;;;5053520;28;19976;-82
2022/05/04 05:52:17;;;;;;;;;;;8.20;99.90;;;;;;5049918;28;20276;-80
2022/05/04 05:54:44;;;;;;;;;;;8.90;99.90;;;;;;5051278;28;20285;-84
2022/05/04 05:57:11;;;;;;;;;;;9.00;99.90;;;;;;5045531;28;20303;-83
2022/05/04 05:59:38;;;;;;;;;;;9.00;99.90;;;;;;5048472;28;19971;-81
2022/05/04 06:02:05;;;;;;;;;;;9.00;99.90;;;;;;5049524;28;20023;-83
2022/05/04 06:04:31;;;;;;;;;;;9.00;99.90;;;;;;5053168;28;20019;-79
2022/05/04 06:06:58;;;;;;;;;;;9.00;99.90;;;;;;5050457;28;20008;-80
2022/05/04 06:09:26;;;;;;;;;;;9.10;99.90;;;;;;5053955;28;19924;-82
2022/05/04 06:11:53;;;;;;;;;;;9.10;99.90;;;;;;5051301;28;19932;-80
2022/05/04 06:14:20;;;;;;;;;;;9.20;99.90;;;;;;5050858;28;19933;-82
2022/05/04 06:16:49;;;;;;;;;;;9.20;99.90;;;;;;5044583;28;20514;-76
2022/05/04 06:19:16;;;;;;;;;;;9.40;99.90;;;;;;5052153;28;20398;-76
2022/05/04 06:21:43;;;;;;;;;;;9.30;99.90;;;;;;5046244;28;19944;-82
2022/05/04 06:24:10;;;;;;;;;;;9.40;99.90;;;;;;5045662;28;19935;-85
2022/05/04 06:26:38;;;;;;;;;;;9.60;99.90;;;;;;5046904;28;20312;-76
2022/05/04 06:29:04;;;;;;;;;;;9.60;99.90;;;;;;5047085;28;19929;-77
2022/05/04 06:34:15;;;;;;;;;;;10.20;99.90;;;;;;5041848;28;19932;-76
2022/05/04 06:36:42;;;;;;;;;;;10.50;99.90;;;;;;5047949;28;20374;-75
2022/05/04 06:39:09;;;;;;;;;;;10.70;99.90;;;;;;5049675;28;19933;-79
2022/05/04 06:41:38;;;;;;;;;;;11.10;99.60;;;;;;5043568;28;20435;-80
2022/05/04 06:44:05;;;;;;;;;;;11.30;98.90;;;;;;5042795;28;19994;-78
2022/05/04 06:46:32;;;;;;;;;;;11.90;97.80;;;;;;5041150;28;19933;-81
2022/05/04 06:48:59;;;;;;;;;;;11.90;94.50;;;;;;5043976;28;20399;-76
2022/05/04 06:51:26;;;;;;;;;;;12.10;94.40;;;;;;5049194;28;19931;-75
2022/05/04 06:53:52;;;;;;;;;;;12.60;92.30;;;;;;5049131;28;19960;-73
2022/05/04 06:56:19;;;;;;;;;;;13.00;87.90;;;;;;5043719;28;20232;-76
2022/05/04 06:58:47;;;;;;;;;;;12.30;88.30;;;;;;5046328;28;20027;-77
2022/05/04 07:01:14;;;;;;;;;;;12.00;91.80;;;;;;5045022;28;19925;-76
2022/05/04 07:03:41;;;;;;;;;;;11.70;89.90;;;;;;5049097;28;19978;-75
2022/05/04 07:06:08;;;;;;;;;;;11.50;90.40;;;;;;5045203;28;19937;-76
2022/05/04 07:08:35;;;;;;;;;;;11.50;90.80;;;;;;5052735;28;19932;-76
2022/05/04 07:11:02;;;;;;;;;;;11.60;90.80;;;;;;5040749;28;20360;-76
2022/05/04 07:13:28;;;;;;;;;;;12.30;90.60;;;;;;5048915;28;19925;-76
2022/05/04 07:15:56;;;;;;;;;;;12.90;85.60;;;;;;5042771;28;20001;-77
2022/05/04 07:18:23;;;;;;;;;;;13.30;80.30;;;;;;5040499;28;19987;-75
2022/05/04 07:20:50;;;;;;;;;;;13.00;80.00;;;;;;5040151;28;20408;-74
2022/05/04 07:23:17;;;;;;;;;;;14.40;80.10;;;;;;5044210;28;19931;-74
2022/05/04 07:25:44;;;;;;;;;;;17.50;59.80;;;;;;5040554;28;20330;-72
2022/05/04 07:28:11;;;;;;;;;;;18.60;45.10;;;;;;5047055;28;19976;-73
2022/05/04 07:30:37;;;;;;;;;;;18.20;41.00;;;;;;5041841;28;20047;-74
2022/05/04 07:33:06;;;;;;;;;;;20.40;37.20;;;;;;5041312;28;19936;-73
2022/05/04 07:35:32;;;;;;;;;;;19.20;32.80;;;;;;5044427;28;20051;-73
2022/05/04 07:37:59;;;;;;;;;;;20.70;32.70;;;;;;5043527;28;19935;-75
2022/05/04 07:43:10;;;;;;;;;;;20.50;26.90;;;;;;5042718;28;19944;-74
2022/05/04 07:45:37;;;;;;;;;;;20.10;28.10;;;;;;5046429;28;19925;-75
2022/05/04 07:48:04;;;;;;;;;;;19.20;28.50;;;;;;5046671;28;19933;-74
2022/05/04 07:50:32;;;;;;;;;;;21.10;26.90;;;;;;5045423;28;19933;-75
2022/05/04 07:52:59;;;;;;;;;;;18.90;28.10;;;;;;5044695;28;19943;-74
2022/05/04 07:55:26;;;;;;;;;;;19.40;27.90;;;;;;5046165;28;19968;-74
2022/05/04 07:57:52;;;;;;;;;;;21.00;26.30;;;;;;5042603;28;20406;-73
2022/05/04 08:05:49;;;;;;;;;;;21.80;22.20;;;;;;5045054;28;19974;-75
2022/05/04 08:08:16;;;;;;;;;;;21.30;22.40;;;;;;5040325;28;20467;-76
2022/05/04 08:10:42;;;;;;;;;;;20.90;23.70;;;;;;5044931;28;19931;-76
2022/05/04 08:13:09;;;;;;;;;;;19.20;24.30;;;;;;5049393;28;19995;-77
2022/05/04 08:15:37;;;;;;;;;;;17.90;26.30;;;;;;5055204;28;20134;-76
2022/05/04 08:18:03;;;;;;;;;;;17.30;27.50;;;;;;5056975;28;19976;-76
2022/05/04 08:20:30;;;;;;;;;;;18.20;28.00;;;;;;5052829;28;20387;-76
2022/05/04 08:22:59;;;;;;;;;;;19.90;25.10;;;;;;5054076;28;19930;-76
2022/05/04 08:25:26;;;;;;;;;;;19.50;23.50;;;;;;5052126;28;20292;-75
2022/05/04 08:27:53;;;;;;;;;;;18.80;24.90;;;;;;5050582;28;19925;-76
2022/05/04 08:30:20;;;;;;;;;;;20.90;23.30;;;;;;5049387;28;19935;-78
2022/05/04 08:32:47;;;;;;;;;;;21.40;21.30;;;;;;5048026;28;19939;-77
2022/05/04 08:35:14;;;;;;;;;;;21.20;21.50;;;;;;5053053;28;19929;-73
2022/05/04 08:37:40;;;;;;;;;;;21.60;21.90;;;;;;5049781;28;19971;-73
2022/05/04 08:40:10;;;;;;;;;;;21.80;19.40;;;;;;5049721;28;19937;-72
2022/05/04 08:42:39;;;;;;;;;;;18.80;23.10;;;;;;5051939;28;19924;-73
2022/05/04 08:45:07;;;;;;;;;;;19.50;24.70;;;;;;5052388;28;20023;-73
2022/05/04 08:47:33;;;;;;;;;;;20.60;22.30;;;;;;5049062;28;19931;-72
2022/05/04 08:50:00;;;;;;;;;;;20.70;21.20;;;;;;5063554;28;19930;-73
2022/05/04 08:52:27;;;;;;;;;;;20.90;20.70;;;;;;5054274;28;19964;-72
2022/05/04 08:54:54;;;;;;;;;;;21.90;20.00;;;;;;5049657;28;19924;-72
2022/05/04 08:57:23;;;;;;;;;;;22.00;19.30;;;;;;5050065;28;19932;-78
2022/05/04 08:59:49;;;;;;;;;;;22.70;18.00;;;;;;5061070;28;20016;-76
2022/05/04 09:02:16;;;;;;;;;;;23.00;17.90;;;;;;5055340;28;19925;-77
2022/05/04 09:04:43;;;;;;;;;;;23.40;16.50;;;;;;5047812;28;20032;-81
2022/05/04 09:07:20;;;;;;;;;;;23.00;16.50;;;;;;5050331;28;19932;-80
2022/05/04 09:09:47;;;;;;;;;;;22.80;16.20;;;;;;5055506;28;19929;-80
2022/05/04 09:12:15;;;;;;;;;;;23.10;15.90;;;;;;5057225;28;20020;-82
2022/05/04 09:14:44;;;;;;;;;;;22.30;16.60;;;;;;5057809;28;19933;-81
2022/05/04 09:17:11;;;;;;;;;;;21.80;17.00;;;;;;5049335;28;20048;-82
2022/05/04 09:19:38;;;;;;;;;;;21.30;17.80;;;;;;5058288;28;19928;-81
2022/05/04 09:22:15;;;;;;;;;;;21.90;16.70;;;;;;5058598;28;20619;-82
2022/05/04 09:24:43;;;;;;;;;;;20.90;18.10;;;;;;5053409;28;19968;-81
2022/05/04 09:27:10;;;;;;;;;;;22.30;16.30;;;;;;5053524;28;19929;-83
2022/05/04 09:29:37;;;;;;;;;;;22.60;16.60;;;;;;5051187;28;20250;-81
2022/05/04 09:32:14;;;;;;;;;;;22.50;14.90;;;;;;5053680;28;19943;-83
2022/05/04 09:34:41;;;;;;;;;;;19.50;20.10;;;;;;5054948;28;19928;-81
2022/05/04 09:45:42;;;;;;;;;;;20.40;20.10;;;;;;5022965;28;20434;-82
2022/05/04 09:48:12;;;;;;;;;;;20.60;18.30;;;;;;5047979;28;20505;-85
2022/05/04 09:50:40;;;;;;;;;;;19.90;19.80;;;;;;5046264;28;19932;-82
2022/05/04 09:53:07;;;;;;;;;;;19.60;19.90;;;;;;5047149;28;19968;-84
2022/05/04 09:55:35;;;;;;;;;;;20.40;19.50;;;;;;5047728;28;19979;-81
2022/05/04 09:58:05;;;;;;;;;;;20.60;19.00;;;;;;5049155;28;19931;-79
2022/05/04 10:00:31;;;;;;;;;;;20.00;18.90;;;;;;5052324;28;19932;-80
2022/05/04 10:02:58;;;;;;;;;;;18.20;21.80;;;;;;5050311;28;19925;-74
2022/05/04 10:05:26;;;;;;;;;;;17.30;24.00;;;;;;5052316;28;19980;-82
2022/05/04 10:07:53;;;;;;;;;;;16.30;25.80;;;;;;5052162;28;19929;-83
2022/05/04 10:10:21;;;;;;;;;;;16.50;26.80;;;;;;5044679;28;19932;-85
2022/05/04 10:12:48;;;;;;;;;;;16.30;26.70;;;;;;5052561;28;19925;-86
2022/05/04 10:15:15;;;;;;;;;;;16.40;27.00;;;;;;5044258;28;19924;-79
2022/05/04 10:17:45;;;;;;;;;;;16.60;26.70;;;;;;5042349;28;19933;-77
2022/05/04 10:20:13;;;;;;;;;;;16.80;26.20;;;;;;5039789;28;19925;-81
2022/05/04 10:22:43;;;;;;;;;;;16.40;26.20;;;;;;5043659;28;20012;-81
2022/05/04 10:25:10;;;;;;;;;;;16.60;25.70;;;;;;5043605;28;19933;-81
2022/05/04 10:27:40;;;;;;;;;;;16.80;25.10;;;;;;5045434;28;19939;-79
2022/05/04 10:32:52;;;;;;;;;;;16.90;23.80;;;;;;5040874;28;19936;-76
2022/05/04 10:35:23;;;;;;;;;;;16.90;24.90;;;;;;5047309;28;19924;-76
2022/05/04 10:38:09;;;;;;;;;;;17.10;24.30;;;;;;5043876;28;20023;-78
2022/05/04 10:40:37;;;;;;;;;;;17.20;23.20;;;;;;5047987;28;20018;-77
2022/05/04 10:43:04;;;;;;;;;;;17.10;24.60;;;;;;5046667;28;20015;-78
2022/05/04 10:45:34;;;;;;;;;;;17.50;24.00;;;;;;5041441;28;20283;-80
2022/05/04 10:48:20;;;;;;;;;;;17.40;23.90;;;;;;5046104;28;20288;-79
2022/05/04 10:50:47;;;;;;;;;;;17.50;25.10;;;;;;5043901;28;19956;-79
2022/05/04 10:53:22;;;;;;;;;;;17.80;25.90;;;;;;5044304;28;20303;-77
2022/05/04 10:55:55;;;;;;;;;;;17.60;25.70;;;;;;5048647;28;19947;-77
2022/05/04 10:58:31;;;;;;;;;;;17.20;25.90;;;;;;5046960;28;19952;-77
2022/05/04 11:01:10;;;;;;;;;;;17.00;26.90;;;;;;5046845;28;19933;-77
2022/05/04 11:03:37;;;;;;;;;;;17.40;26.70;;;;;;5041892;28;20023;-78
2022/05/04 11:06:09;;;;;;;;;;;17.60;25.60;;;;;;5041127;28;20405;-75
2022/05/04 11:08:38;;;;;;;;;;;17.50;25.80;;;;;;5042765;28;20433;-77
2022/05/04 11:11:05;;;;;;;;;;;17.60;26.10;;;;;;5046150;28;19928;-80
2022/05/04 11:13:32;;;;;;;;;;;17.70;25.50;;;;;;5048620;28;19935;-79
2022/05/04 11:16:00;;;;;;;;;;;17.90;26.10;;;;;;5047597;28;20787;-80
2022/05/04 11:18:28;;;;;;;;;;;18.10;25.30;;;;;;5040003;28;20396;-78
2022/05/04 11:20:55;;;;;;;;;;;18.00;25.20;;;;;;5044409;28;19925;-76
2022/05/04 11:23:25;;;;;;;;;;;17.20;25.80;;;;;;5041339;28;20004;-76
2022/05/04 11:25:55;;;;;;;;;;;16.70;26.90;;;;;;5042569;28;19939;-78
2022/05/04 11:28:23;;;;;;;;;;;17.20;27.50;;;;;;5045101;28;19925;-78
2022/05/04 11:30:51;;;;;;;;;;;17.40;25.80;;;;;;5041987;28;19928;-77
2022/05/04 11:33:18;;;;;;;;;;;17.70;25.20;;;;;;5043804;28;19933;-80
2022/05/04 11:35:45;;;;;;;;;;;17.40;25.30;;;;;;5042194;28;19929;-77
2022/05/04 11:38:21;;;;;;;;;;;17.10;26.40;;;;;;5042457;28;20012;-77
2022/05/04 11:40:49;;;;;;;;;;;16.60;26.20;;;;;;5043508;28;22376;-78
2022/05/04 11:43:24;;;;;;;;;;;17.00;26.50;;;;;;5044137;28;19975;-76
2022/05/04 11:45:52;;;;;;;;;;;17.50;26.30;;;;;;5045156;28;19971;-77
2022/05/04 11:48:18;;;;;;;;;;;17.80;24.70;;;;;;5049282;28;19924;-84
2022/05/04 11:50:45;;;;;;;;;;;17.60;24.40;;;;;;5051527;28;19947;-85
2022/05/04 11:53:12;;;;;;;;;;;17.50;25.30;;;;;;5052728;28;20418;-84
2022/05/04 11:55:39;;;;;;;;;;;17.70;24.00;;;;;;5058400;28;20008;-83
2022/05/04 11:58:08;;;;;;;;;;;17.60;24.50;;;;;;5059517;28;19951;-84
2022/05/04 12:00:36;;;;;;;;;;;18.00;24.20;;;;;;5065342;28;19929;-84
2022/05/04 12:03:03;;;;;;;;;;;17.90;24.20;;;;;;5062040;28;19931;-84
2022/05/04 12:05:30;;;;;;;;;;;17.60;24.80;;;;;;5047706;28;19978;-84
2022/05/04 12:07:57;;;;;;;;;;;17.60;25.30;;;;;;5059867;28;19925;-83
2022/05/04 12:10:23;;;;;;;;;;;18.00;23.90;;;;;;5055077;28;19983;-82
2022/05/04 12:12:51;;;;;;;;;;;17.80;24.80;;;;;;5063854;28;20439;-83
2022/05/04 12:15:17;;;;;;;;;;;17.10;25.70;;;;;;5055566;28;20402;-84
2022/05/04 12:17:46;;;;;;;;;;;17.50;26.30;;;;;;5059696;28;19925;-85
2022/05/04 12:20:12;;;;;;;;;;;17.70;25.70;;;;;;5056092;28;20533;-84
2022/05/04 12:22:40;;;;;;;;;;;17.80;25.10;;;;;;5049819;28;19998;-84
2022/05/04 12:25:07;;;;;;;;;;;17.60;24.40;;;;;;5052585;28;20108;-86
2022/05/04 12:27:35;;;;;;;;;;;17.60;25.20;;;;;;5053644;28;19932;-82
2022/05/04 12:35:32;;;;;;;;;;;18.70;23.80;;;;;;5052325;28;19952;-83
2022/05/04 12:37:59;;;;;;;;;;;18.90;24.00;;;;;;5055925;28;20309;-84
2022/05/04 12:40:26;;;;;;;;;;;18.30;24.30;;;;;;5059555;28;19931;-84
2022/05/04 12:42:53;;;;;;;;;;;18.40;24.30;;;;;;5053892;28;19983;-83
2022/05/04 12:45:24;;;;;;;;;;;18.80;24.90;;;;;;5059069;28;19939;-83
2022/05/04 12:47:52;;;;;;;;;;;19.10;23.70;;;;;;5062738;28;20022;-84
2022/05/04 12:50:20;;;;;;;;;;;18.80;24.00;;;;;;5058334;28;19974;-83
2022/05/04 12:52:46;;;;;;;;;;;18.90;23.90;;;;;;5060968;28;19925;-82
2022/05/04 12:55:13;;;;;;;;;;;19.20;23.90;;;;;;5050546;28;19971;-83
2022/05/04 12:57:40;;;;;;;;;;;18.60;25.10;;;;;;5051851;28;19979;-82
2022/05/04 13:00:07;;;;;;;;;;;18.50;25.90;;;;;;5054852;28;19929;-84
2022/05/04 13:02:34;;;;;;;;;;;18.80;24.90;;;;;;5050689;28;19937;-84
2022/05/04 13:05:03;;;;;;;;;;;18.90;24.90;;;;;;5049882;28;19925;-86
2022/05/04 13:07:31;;;;;;;;;;;18.90;24.30;;;;;;5049147;28;19939;-84
2022/05/04 13:09:58;;;;;;;;;;;19.00;23.80;;;;;;5057628;28;19931;-83
2022/05/04 13:12:24;;;;;;;;;;;18.80;23.80;;;;;;5050372;28;19924;-83
2022/05/04 13:14:51;;;;;;;;;;;18.80;24.10;;;;;;5053595;28;19939;-83
2022/05/04 13:17:18;;;;;;;;;;;18.60;24.40;;;;;;5048171;28;19924;-84
2022/05/04 13:19:45;;;;;;;;;;;18.20;25.00;;;;;;5050097;28;19929;-83
2022/05/04 13:22:13;;;;;;;;;;;18.80;25.10;;;;;;5051886;28;19931;-84
2022/05/04 13:24:39;;;;;;;;;;;19.10;24.20;;;;;;5051455;28;20018;-84
2022/05/04 13:27:07;;;;;;;;;;;19.20;23.80;;;;;;5051752;28;20000;-86
2022/05/04 13:29:33;;;;;;;;;;;19.00;24.90;;;;;;5050240;28;20356;-84
2022/05/04 13:32:00;;;;;;;;;;;19.10;24.10;;;;;;5049857;28;19931;-83
2022/05/04 13:34:27;;;;;;;;;;;18.30;24.90;;;;;;5050142;28;19981;-84
2022/05/04 13:36:54;;;;;;;;;;;18.70;25.50;;;;;;5049692;28;19932;-84
2022/05/04 13:39:22;;;;;;;;;;;19.00;24.80;;;;;;5052840;28;19924;-84
2022/05/04 13:41:50;;;;;;;;;;;19.20;24.30;;;;;;5052737;28;19931;-74
2022/05/04 13:44:17;;;;;;;;;;;19.20;24.20;;;;;;5050046;28;19937;-85
2022/05/04 13:46:44;;;;;;;;;;;19.20;24.50;;;;;;5047894;28;19932;-85
2022/05/04 13:49:10;;;;;;;;;;;19.70;23.80;;;;;;5048826;28;20022;-84
2022/05/04 13:54:25;;;;;;;;;;;18.30;25.90;;;;;;5023477;28;19925;-84
2022/05/04 13:56:51;;;;;;;;;;;18.10;26.80;;;;;;5045856;28;19931;-84
2022/05/04 13:59:18;;;;;;;;;;;17.80;27.10;;;;;;5054076;28;19940;-85
2022/05/04 14:01:45;;;;;;;;;;;18.00;26.80;;;;;;5048510;28;19925;-86
2022/05/04 14:04:12;;;;;;;;;;;17.90;27.20;;;;;;5052398;28;19925;-83
2022/05/04 14:06:39;;;;;;;;;;;18.40;27.60;;;;;;5051361;28;20000;-83
2022/05/04 14:09:06;;;;;;;;;;;19.00;26.60;;;;;;5057833;28;19924;-84
2022/05/04 14:11:34;;;;;;;;;;;19.00;26.00;;;;;;5049275;28;20024;-85
2022/05/04 14:16:45;;;;;;;;;;;19.20;26.10;;;;;;5050813;28;19948;-83
2022/05/04 14:19:11;;;;;;;;;;;19.90;25.20;;;;;;5049595;28;19931;-85
2022/05/04 14:21:38;;;;;;;;;;;20.00;24.70;;;;;;5049197;28;19936;-85
2022/05/04 14:24:05;;;;;;;;;;;20.00;24.60;;;;;;5061472;28;19939;-84
2022/05/04 14:26:32;;;;;;;;;;;19.90;24.40;;;;;;5045979;28;20329;-84
2022/05/04 14:29:00;;;;;;;;;;;19.50;25.10;;;;;;5050379;28;19932;-84
2022/05/04 14:31:27;;;;;;;;;;;19.40;25.80;;;;;;5047069;28;19939;-84
2022/05/04 14:33:54;;;;;;;;;;;19.30;25.80;;;;;;5046055;28;20016;-83
2022/05/04 14:36:20;;;;;;;;;;;19.30;25.60;;;;;;5043340;28;19940;-83
2022/05/04 14:38:47;;;;;;;;;;;19.40;25.70;;;;;;5051908;28;19933;-81
2022/05/04 14:41:14;;;;;;;;;;;19.50;25.90;;;;;;5051264;28;19935;-83
2022/05/04 14:43:41;;;;;;;;;;;19.50;26.00;;;;;;5045113;28;19935;-82
2022/05/04 14:46:09;;;;;;;;;;;19.40;25.90;;;;;;5044650;28;19933;-82
2022/05/04 14:48:36;;;;;;;;;;;19.20;26.40;;;;;;5045171;28;19924;-81
2022/05/04 14:51:02;;;;;;;;;;;19.00;26.60;;;;;;5045315;28;20580;-84
2022/05/04 14:53:29;;;;;;;;;;;18.30;26.90;;;;;;5048082;28;20011;-84
2022/05/04 14:55:56;;;;;;;;;;;17.60;28.80;;;;;;5047781;28;19931;-84
2022/05/04 14:58:24;;;;;;;;;;;17.30;29.10;;;;;;5047734;28;19951;-83
2022/05/04 15:00:52;;;;;;;;;;;17.30;29.40;;;;;;5051203;28;19924;-83
2022/05/04 15:06:06;;;;;;;;;;;17.70;29.20;;;;;;5049401;28;20017;-84
2022/05/04 15:08:33;;;;;;;;;;;18.10;28.40;;;;;;5047462;28;20458;-83
2022/05/04 15:10:59;;;;;;;;;;;18.10;28.30;;;;;;5049422;28;20240;-83
2022/05/04 15:13:26;;;;;;;;;;;18.30;28.30;;;;;;5053047;28;19929;-84
2022/05/04 15:15:53;;;;;;;;;;;17.80;28.90;;;;;;5051466;28;20003;-79
2022/05/04 15:18:21;;;;;;;;;;;18.00;28.70;;;;;;5050218;28;19991;-77